createdAt,value
2022-10-10T00:00:12.215Z,13.90
2022-10-10T00:05:57.636Z,15.20
2022-10-10T00:11:24.653Z,14.20
2022-10-10T00:14:07.461Z,15.30
2022-10-10T00:19:32.915Z,16.00
2022-10-10T00:22:15.693Z,14.80
2022-10-10T00:27:41.423Z,15.80
2022-10-10T00:30:24.097Z,16.00
2022-10-10T00:33:07.153Z,15.70
2022-10-10T00:35:50.166Z,15.80
2022-10-10T00:38:33.079Z,16.70
2022-10-10T00:41:15.892Z,16.60
2022-10-10T00:44:14.102Z,16.60
2022-10-10T00:46:56.765Z,18.00
2022-10-10T00:49:42.015Z,18.30
2022-10-10T00:52:24.770Z,17.60
2022-10-10T00:55:08.186Z,17.10
2022-10-10T00:57:51.553Z,18.00
2022-10-10T01:00:34.424Z,17.40
2022-10-10T01:03:17.488Z,17.20
2022-10-10T01:06:00.867Z,18.40
2022-10-10T01:08:43.779Z,17.80
2022-10-10T01:11:59.640Z,17.30
2022-10-10T01:14:53.715Z,18.30
2022-10-10T01:18:11.633Z,17.10
2022-10-10T01:21:13.396Z,16.40
2022-10-10T01:24:17.410Z,18.20
2022-10-10T01:27:14.939Z,16.50
2022-10-10T01:30:04.226Z,16.10
2022-10-10T01:33:16.254Z,18.90
2022-10-10T01:36:11.268Z,18.30
2022-10-10T01:39:09.308Z,18.90
2022-10-10T01:41:59.916Z,18.90
2022-10-10T01:44:46.408Z,17.40
2022-10-10T01:47:29.103Z,17.00
2022-10-10T01:53:01.508Z,18.20
2022-10-10T01:55:47.262Z,18.70
2022-10-10T01:58:41.881Z,17.50
2022-10-10T02:01:47.382Z,17.50
2022-10-10T02:04:43.876Z,19.20
2022-10-10T02:07:55.507Z,18.70
2022-10-10T02:10:49.843Z,19.90
2022-10-10T02:13:39.761Z,19.80
2022-10-10T02:16:26.827Z,20.60
2022-10-10T02:19:13.018Z,20.40
2022-10-10T02:21:56.647Z,19.30
2022-10-10T02:24:40.002Z,21.20
2022-10-10T02:27:47.147Z,19.30
2022-10-10T02:30:30.565Z,19.50
2022-10-10T02:33:19.444Z,19.80
2022-10-10T02:36:03.787Z,20.20
2022-10-10T02:38:48.320Z,20.00
2022-10-10T02:41:33.865Z,19.70
2022-10-10T02:44:18.250Z,22.00
2022-10-10T02:47:01.158Z,19.60
2022-10-10T02:49:44.381Z,21.30
2022-10-10T02:52:27.116Z,20.90
2022-10-10T02:55:10.297Z,19.40
2022-10-10T02:57:53.739Z,21.10
2022-10-10T03:00:36.561Z,21.10
2022-10-10T03:06:03.109Z,20.30
2022-10-10T03:08:45.920Z,20.90
2022-10-10T03:14:11.749Z,21.30
2022-10-10T03:16:54.461Z,23.00
2022-10-10T03:19:37.533Z,21.80
2022-10-10T03:22:20.438Z,20.80
2022-10-10T03:25:04.229Z,20.70
2022-10-10T03:27:47.154Z,21.80
2022-10-10T03:30:29.817Z,22.10
2022-10-10T03:33:12.971Z,20.90
2022-10-10T03:38:40.173Z,19.10
2022-10-10T03:41:22.882Z,20.40
2022-10-10T03:44:05.603Z,20.00
2022-10-10T03:46:48.338Z,22.00
2022-10-10T03:49:30.984Z,21.40
2022-10-10T03:52:13.687Z,21.80
2022-10-10T03:54:56.395Z,19.70
2022-10-10T03:57:39.131Z,22.90
2022-10-10T04:00:22.220Z,20.90
2022-10-10T04:05:49.585Z,19.80
2022-10-10T04:08:32.638Z,20.90
2022-10-10T04:11:15.285Z,20.00
2022-10-10T04:13:58.158Z,20.30
2022-10-10T04:19:23.752Z,18.80
2022-10-10T04:22:10.919Z,20.90
2022-10-10T04:24:53.922Z,21.70
2022-10-10T04:30:19.475Z,19.60
2022-10-10T04:33:02.171Z,20.70
2022-10-10T04:35:48.130Z,22.40
2022-10-10T04:38:31.892Z,21.50
2022-10-10T04:41:14.533Z,22.00
2022-10-10T04:43:57.255Z,23.00
2022-10-10T04:46:39.891Z,23.00
2022-10-10T04:49:23.323Z,22.60
2022-10-10T04:52:06.056Z,25.80
2022-10-10T04:54:48.908Z,23.80
2022-10-10T05:00:14.943Z,23.50
2022-10-10T05:02:57.685Z,24.20
2022-10-10T05:05:40.466Z,22.80
2022-10-10T05:11:06.063Z,20.30
2022-10-10T05:13:50.789Z,21.50
2022-10-10T05:16:33.501Z,21.60
2022-10-10T05:19:16.227Z,23.60
2022-10-10T05:24:41.687Z,23.90
2022-10-10T05:30:07.504Z,20.40
2022-10-10T05:32:50.327Z,20.70
2022-10-10T05:35:33.551Z,21.50
2022-10-10T05:38:16.218Z,21.00
2022-10-10T05:40:59.088Z,20.60
2022-10-10T05:43:42.764Z,20.90
2022-10-10T05:46:27.579Z,21.10
2022-10-10T05:49:10.295Z,19.60
2022-10-10T05:54:36.204Z,21.30
2022-10-10T05:57:18.916Z,22.70
2022-10-10T06:02:48.630Z,20.90
2022-10-10T06:05:31.749Z,21.10
2022-10-10T06:11:06.016Z,22.70
2022-10-10T06:13:52.717Z,23.10
2022-10-10T06:16:37.078Z,23.30
2022-10-10T06:19:19.837Z,23.40
2022-10-10T06:24:48.444Z,21.30
2022-10-10T06:27:33.599Z,20.70
2022-10-10T06:30:17.126Z,23.10
2022-10-10T06:33:00.212Z,22.60
2022-10-10T06:35:45.241Z,21.40
2022-10-10T06:38:30.062Z,20.10
2022-10-10T06:41:13.608Z,20.70
2022-10-10T06:43:56.392Z,19.00
2022-10-10T06:49:22.441Z,16.00
2022-10-10T06:52:05.353Z,16.20
2022-10-10T06:57:30.670Z,14.80
2022-10-10T07:02:56.806Z,12.80
2022-10-10T07:05:40.441Z,11.00
2022-10-10T07:08:24.286Z,11.90
2022-10-10T07:11:07.981Z,12.90
2022-10-10T07:13:53.889Z,11.30
2022-10-10T07:16:36.529Z,9.70
2022-10-10T07:22:03.248Z,9.20
2022-10-10T07:24:45.911Z,9.10
2022-10-10T07:27:28.875Z,9.10
2022-10-10T07:30:12.299Z,8.50
2022-10-10T07:32:55.731Z,10.00
2022-10-10T07:35:38.640Z,9.20
2022-10-10T07:38:21.403Z,8.60
2022-10-10T07:41:09.279Z,8.30
2022-10-10T07:43:56.505Z,8.90
2022-10-10T07:46:39.717Z,8.40
2022-10-10T07:49:22.374Z,8.40
2022-10-10T07:52:05.339Z,7.70
2022-10-10T07:54:48.152Z,8.30
2022-10-10T07:57:35.218Z,8.60
2022-10-10T08:00:18.380Z,8.20
2022-10-10T08:03:01.726Z,8.50
2022-10-10T08:05:47.064Z,8.80
2022-10-10T08:08:29.848Z,8.70
2022-10-10T08:11:12.500Z,9.80
2022-10-10T08:13:55.158Z,9.40
2022-10-10T08:16:37.873Z,9.10
2022-10-10T08:19:20.525Z,10.00
2022-10-10T08:22:03.241Z,10.10
2022-10-10T08:24:46.041Z,10.90
2022-10-10T08:27:28.961Z,11.10
2022-10-10T08:30:12.191Z,11.30
2022-10-10T08:32:55.096Z,10.50
2022-10-10T08:35:39.900Z,10.40
2022-10-10T08:38:22.559Z,10.10
2022-10-10T08:41:45.282Z,9.70
2022-10-10T08:44:46.537Z,11.50
2022-10-10T08:48:01.874Z,11.80
2022-10-10T08:50:51.175Z,10.40
2022-10-10T08:53:42.239Z,10.60
2022-10-10T08:56:31.060Z,10.70
2022-10-10T08:59:26.913Z,11.10
2022-10-10T09:02:50.220Z,10.60
2022-10-10T09:05:41.442Z,9.80
2022-10-10T09:08:36.140Z,10.90
2022-10-10T09:11:29.572Z,10.80
2022-10-10T09:14:15.351Z,10.60
2022-10-10T09:17:20.125Z,10.20
2022-10-10T09:20:34.189Z,10.30
2022-10-10T09:23:27.620Z,11.00
2022-10-10T09:26:16.557Z,9.60
2022-10-10T09:29:41.520Z,10.40
2022-10-10T09:32:45.591Z,9.60
2022-10-10T09:35:31.162Z,9.80
2022-10-10T09:38:16.821Z,9.60
2022-10-10T09:41:20.927Z,9.30
2022-10-10T09:44:11.407Z,9.80
2022-10-10T09:46:54.234Z,11.40
2022-10-10T09:49:36.985Z,9.60
2022-10-10T09:52:26.875Z,8.40
2022-10-10T09:55:24.813Z,9.00
2022-10-10T09:58:26.503Z,8.40
2022-10-10T10:01:26.363Z,8.80
2022-10-10T10:04:29.770Z,8.70
2022-10-10T10:07:48.213Z,8.20
2022-10-10T10:10:35.576Z,8.20
2022-10-10T10:13:26.566Z,7.80
2022-10-10T10:16:12.756Z,7.80
2022-10-10T10:18:55.735Z,7.60
2022-10-10T10:21:50.273Z,8.80
2022-10-10T10:24:39.131Z,8.00
2022-10-10T10:27:24.840Z,7.50
2022-10-10T10:30:24.751Z,8.60
2022-10-10T10:33:46.366Z,8.00
2022-10-10T10:36:43.481Z,7.10
2022-10-10T10:39:43.727Z,5.90
2022-10-10T10:43:00.802Z,6.80
2022-10-10T10:46:08.147Z,6.30
2022-10-10T10:49:09.798Z,7.70
2022-10-10T10:52:03.971Z,8.00
2022-10-10T10:55:02.762Z,7.60
2022-10-10T10:58:54.994Z,7.50
2022-10-10T11:01:54.719Z,7.00
2022-10-10T11:05:20.452Z,6.90
2022-10-10T11:08:11.536Z,7.10
2022-10-10T11:11:16.757Z,8.30
2022-10-10T11:14:37.005Z,6.40
2022-10-10T11:17:43.405Z,6.50
2022-10-10T11:20:42.252Z,7.00
2022-10-10T11:23:37.347Z,6.50
2022-10-10T11:26:38.581Z,6.30
2022-10-10T11:29:47.489Z,6.00
2022-10-10T11:33:02.431Z,5.60
2022-10-10T11:36:06.773Z,6.30
2022-10-10T11:39:15.486Z,6.30
2022-10-10T11:42:22.296Z,6.60
2022-10-10T11:45:19.515Z,6.00
2022-10-10T11:48:58.236Z,6.60
2022-10-10T11:52:04.890Z,6.60
2022-10-10T11:55:20.752Z,6.90
2022-10-10T11:58:06.541Z,6.20
2022-10-10T12:00:55.174Z,6.80
2022-10-10T12:03:37.901Z,6.40
2022-10-10T12:06:30.240Z,7.20
2022-10-10T12:12:18.557Z,6.60
2022-10-10T12:15:05.464Z,6.70
2022-10-10T12:17:48.276Z,6.40
2022-10-10T12:20:37.170Z,6.80
2022-10-10T12:23:23.961Z,6.80
2022-10-10T12:26:06.751Z,7.10
2022-10-10T12:29:07.320Z,6.20
2022-10-10T12:32:22.718Z,6.60
2022-10-10T12:35:31.236Z,6.40
2022-10-10T12:38:15.870Z,6.10
2022-10-10T12:41:12.516Z,7.20
2022-10-10T12:44:04.801Z,6.10
2022-10-10T12:47:07.806Z,6.60
2022-10-10T12:50:02.591Z,7.10
2022-10-10T12:52:57.574Z,6.60
2022-10-10T12:55:44.151Z,6.80
2022-10-10T12:58:32.313Z,6.40
2022-10-10T13:01:28.570Z,6.50
2022-10-10T13:04:16.771Z,7.10
2022-10-10T13:07:02.323Z,6.90
2022-10-10T13:09:50.148Z,6.50
2022-10-10T13:12:34.307Z,6.40
2022-10-10T13:15:22.461Z,7.50
2022-10-10T13:18:05.665Z,6.80
2022-10-10T13:20:48.357Z,7.10
2022-10-10T13:23:32.210Z,7.50
2022-10-10T13:26:33.964Z,7.70
2022-10-10T13:29:22.600Z,7.50
2022-10-10T13:32:08.932Z,8.30
2022-10-10T13:35:01.528Z,6.70
2022-10-10T13:40:29.406Z,8.00
2022-10-10T13:43:15.795Z,6.70
2022-10-10T13:46:03.838Z,8.10
2022-10-10T13:48:46.509Z,7.20
2022-10-10T13:51:47.159Z,7.00
2022-10-10T13:54:45.603Z,7.50
2022-10-10T13:57:28.648Z,7.50
2022-10-10T14:00:17.627Z,6.90
2022-10-10T14:03:00.725Z,7.50
2022-10-10T14:05:45.707Z,7.30
2022-10-10T14:08:33.784Z,7.90
2022-10-10T14:11:20.290Z,7.90
2022-10-10T14:14:14.789Z,8.00
2022-10-10T14:17:02.719Z,8.30
2022-10-10T14:19:46.593Z,8.80
2022-10-10T14:22:29.368Z,8.30
2022-10-10T14:25:12.287Z,8.60
2022-10-10T14:27:54.966Z,8.50
2022-10-10T14:30:37.819Z,7.70
2022-10-10T14:33:21.454Z,7.90
2022-10-10T14:36:04.742Z,8.30
2022-10-10T14:38:47.456Z,7.90
2022-10-10T14:41:30.287Z,6.90
2022-10-10T14:44:13.202Z,6.90
2022-10-10T14:46:56.937Z,7.70
2022-10-10T14:49:39.582Z,8.20
2022-10-10T14:52:22.856Z,7.50
2022-10-10T14:55:06.396Z,7.80
2022-10-10T14:57:49.832Z,8.10
2022-10-10T15:00:32.638Z,11.50
2022-10-10T15:03:15.596Z,9.60
2022-10-10T15:05:58.467Z,9.10
2022-10-10T15:08:41.180Z,10.10
2022-10-10T15:11:23.885Z,8.80
2022-10-10T15:14:06.737Z,8.80
2022-10-10T15:16:49.455Z,9.00
2022-10-10T15:19:32.280Z,9.40
2022-10-10T15:22:15.360Z,8.50
2022-10-10T15:24:58.680Z,9.70
2022-10-10T15:27:41.550Z,9.80
2022-10-10T15:30:24.904Z,9.00
2022-10-10T15:33:07.636Z,10.80
2022-10-10T15:36:09.032Z,9.00
2022-10-10T15:38:52.736Z,9.00
2022-10-10T15:41:35.445Z,9.50
2022-10-10T15:44:19.027Z,9.10
2022-10-10T15:47:01.736Z,9.30
2022-10-10T15:49:44.551Z,9.80
2022-10-10T15:52:27.413Z,9.50
2022-10-10T15:55:10.481Z,9.10
2022-10-10T15:57:53.292Z,11.00
2022-10-10T16:00:40.352Z,9.50
2022-10-10T16:03:23.115Z,9.60
2022-10-10T16:06:06.441Z,10.50
2022-10-10T16:08:55.659Z,10.90
2022-10-10T16:11:42.672Z,11.20
2022-10-10T16:14:25.949Z,10.90
2022-10-10T16:17:10.779Z,10.10
2022-10-10T16:19:53.603Z,9.90
2022-10-10T16:22:36.350Z,10.20
2022-10-10T16:25:23.075Z,11.10
2022-10-10T16:28:06.717Z,9.60
2022-10-10T16:30:49.765Z,10.30
2022-10-10T16:33:34.413Z,9.80
2022-10-10T16:36:25.513Z,10.10
2022-10-10T16:39:08.444Z,11.20
2022-10-10T16:41:51.222Z,9.50
2022-10-10T16:44:33.946Z,10.50
2022-10-10T16:47:16.724Z,10.90
2022-10-10T16:49:59.481Z,10.00
2022-10-10T16:52:42.397Z,11.10
2022-10-10T16:55:25.211Z,12.50
2022-10-10T16:58:09.393Z,11.60
2022-10-10T17:00:52.065Z,13.10
2022-10-10T17:06:48.797Z,14.30
2022-10-10T17:09:31.611Z,14.50
2022-10-10T17:12:14.298Z,15.00
2022-10-10T17:14:57.030Z,14.40
2022-10-10T17:17:39.842Z,15.50
2022-10-10T17:20:22.791Z,15.00
2022-10-10T17:23:05.673Z,15.40
2022-10-10T17:25:48.486Z,17.40
2022-10-10T17:28:31.252Z,16.70
2022-10-10T17:31:16.258Z,17.30
2022-10-10T17:33:59.688Z,15.50
2022-10-10T17:36:42.354Z,19.10
2022-10-10T17:39:24.974Z,19.00
2022-10-10T17:42:07.807Z,18.60
2022-10-10T17:44:56.112Z,19.60
2022-10-10T17:47:39.095Z,22.70
2022-10-10T17:50:22.030Z,21.10
2022-10-10T17:53:04.799Z,21.00
2022-10-10T17:55:47.650Z,24.00
2022-10-10T17:58:30.834Z,22.70
2022-10-10T18:01:16.447Z,23.10
2022-10-10T18:03:59.529Z,24.50
2022-10-10T18:06:42.189Z,23.70
2022-10-10T18:09:25.259Z,23.70
2022-10-10T18:12:07.994Z,24.40
2022-10-10T18:14:50.678Z,23.60
2022-10-10T18:17:33.386Z,22.20
2022-10-10T18:20:16.204Z,22.40
2022-10-10T18:23:00.589Z,19.80
2022-10-10T18:25:43.263Z,21.60
2022-10-10T18:28:26.839Z,21.20
2022-10-10T18:31:15.849Z,20.10
2022-10-10T18:33:59.882Z,21.10
2022-10-10T18:36:44.228Z,20.20
2022-10-10T18:39:32.180Z,22.20
2022-10-10T18:42:15.994Z,18.80
2022-10-10T18:44:58.706Z,20.80
2022-10-10T18:47:41.359Z,18.70
2022-10-10T18:50:24.018Z,17.60
2022-10-10T18:53:06.793Z,19.50
2022-10-10T18:56:00.292Z,18.50
2022-10-10T18:58:43.001Z,19.00
2022-10-10T19:01:27.528Z,19.30
2022-10-10T19:04:10.366Z,18.60
2022-10-10T19:06:57.429Z,17.50
2022-10-10T19:09:40.584Z,19.50
2022-10-10T19:12:23.309Z,18.60
2022-10-10T19:15:06.480Z,19.80
2022-10-10T19:17:49.261Z,20.20
2022-10-10T19:20:32.666Z,20.90
2022-10-10T19:23:15.786Z,21.10
2022-10-10T19:26:05.907Z,20.70
2022-10-10T19:28:48.743Z,22.10
2022-10-10T19:31:32.104Z,20.00
2022-10-10T19:34:14.910Z,19.40
2022-10-10T19:36:58.776Z,20.70
2022-10-10T19:39:41.394Z,19.50
2022-10-10T19:42:24.275Z,18.10
2022-10-10T19:45:07.549Z,19.40
2022-10-10T19:47:50.277Z,18.30
2022-10-10T19:50:32.980Z,18.60
2022-10-10T19:53:17.958Z,17.40
2022-10-10T19:56:03.872Z,19.10
2022-10-10T19:58:46.983Z,17.80
2022-10-10T20:01:30.842Z,18.20
2022-10-10T20:04:14.548Z,17.60
2022-10-10T20:06:57.291Z,17.60
2022-10-10T20:09:39.974Z,18.40
2022-10-10T20:12:24.833Z,18.00
2022-10-10T20:15:08.347Z,17.10
2022-10-10T20:17:51.073Z,16.70
2022-10-10T20:20:33.735Z,17.20
2022-10-10T20:23:18.999Z,16.10
2022-10-10T20:26:02.022Z,16.90
2022-10-10T20:28:46.486Z,17.20
2022-10-10T20:31:32.184Z,17.40
2022-10-10T20:34:14.909Z,17.70
2022-10-10T20:36:57.617Z,17.70
2022-10-10T20:39:40.396Z,16.70
2022-10-10T20:42:23.170Z,16.80
2022-10-10T20:47:53.940Z,15.20
2022-10-10T20:53:20.123Z,16.50
2022-10-10T20:56:07.771Z,18.90
2022-10-10T20:58:50.474Z,17.40
2022-10-10T21:01:34.430Z,17.80
2022-10-10T21:04:17.309Z,17.40
2022-10-10T21:06:59.970Z,16.80
2022-10-10T21:09:42.641Z,18.20
2022-10-10T21:15:08.662Z,15.30
2022-10-10T21:17:55.988Z,17.60
2022-10-10T21:20:38.787Z,17.00
2022-10-10T21:23:21.485Z,16.50
2022-10-10T21:26:09.436Z,18.60
2022-10-10T21:28:52.731Z,16.70
2022-10-10T21:31:38.121Z,17.40
2022-10-10T21:34:20.834Z,17.20
2022-10-10T21:39:46.307Z,16.40
2022-10-10T21:42:29.014Z,17.60
2022-10-10T21:47:54.421Z,16.50
2022-10-10T21:53:20.419Z,16.80
2022-10-10T21:56:06.546Z,19.20
2022-10-10T21:58:49.578Z,18.20
2022-10-10T22:04:20.416Z,16.90
2022-10-10T22:09:47.494Z,16.30
2022-10-10T22:12:30.159Z,18.30
2022-10-10T22:17:56.784Z,16.10
2022-10-10T22:20:39.497Z,18.60
2022-10-10T22:26:09.217Z,16.10
2022-10-10T22:28:51.972Z,16.60
2022-10-10T22:31:37.971Z,16.10
2022-10-10T22:34:21.029Z,16.90
2022-10-10T22:37:03.967Z,16.30
2022-10-10T22:45:12.322Z,16.70
2022-10-10T22:50:38.824Z,16.00
2022-10-10T22:53:21.479Z,15.70
2022-10-10T22:58:49.309Z,16.60
2022-10-10T23:01:32.122Z,16.30
2022-10-10T23:04:14.744Z,17.40
2022-10-10T23:09:40.482Z,15.50
2022-10-10T23:12:23.479Z,17.30
2022-10-10T23:15:06.769Z,17.30
2022-10-10T23:17:49.509Z,16.50
2022-10-10T23:20:32.629Z,16.30
2022-10-10T23:23:17.400Z,16.30
2022-10-10T23:26:05.422Z,16.00
2022-10-10T23:28:52.089Z,15.70
2022-10-10T23:31:35.598Z,16.60
2022-10-10T23:34:18.238Z,15.10
2022-10-10T23:39:43.656Z,15.60
2022-10-10T23:42:26.398Z,16.10
2022-10-10T23:47:52.033Z,16.10
2022-10-10T23:53:17.431Z,15.10
2022-10-10T23:56:00.346Z,16.30
